This is the latest recevied weather packets stored in our database for station/object N9BSW. If no packets are shown the sender has not sent any weather packets the latest 1 day(s).
| Time | Temp. | Humidity | Pressure | Rain* | Wind** | Luminosity | Snow |
|---|---|---|---|---|---|---|---|
| 1836274790 | 19.44° C | 83% | 1017.8 hPa | 0 mm | 0 m/s | 0 W/m² | - |
| 1836274488 | 19.44° C | 81% | 1017.7 hPa | 0 mm | 0 m/s | 0 W/m² | - |
| 1836274342 | 18.89° C | 84% | 1017.7 hPa | 0 mm | 0 m/s | 0 W/m² | - |
| 1836274186 | 20° C | 81% | 1017.6 hPa | 0 mm | 0 m/s | 0 W/m² | - |
| 1836273886 | 20° C | 80% | 1017.8 hPa | 0 mm | 0 m/s | 0 W/m² | - |
| 1778047659 | 8.33° C | 96% | 1009.7 hPa | 0 mm | 0 m/s | 0 W/m² | - |
| 1778047357 | 8.33° C | 96% | 1009.9 hPa | 0 mm | 1.79 m/s, 43° | 0 W/m² | - |
| 1778047053 | 8.33° C | 96% | 1009.8 hPa | 0 mm | 0.89 m/s, 94° | 0 W/m² | - |
| 1778046750 | 8.33° C | 96% | 1010 hPa | 0 mm | 0.89 m/s, 108° | 0 W/m² | - |
| 1778046447 | 8.33° C | 96% | 1010 hPa | 0 mm | 0 m/s | 0 W/m² | - |
| 1778046143 | 8.33° C | 96% | 1010.1 hPa | 0 mm | 0.45 m/s, 142° | 0 W/m² | - |
| 1778045841 | 8.33° C | 96% | 1010.1 hPa | 0 mm | 0.45 m/s, 136° | 0 W/m² | - |
| 1778045540 | 8.33° C | 96% | 1010 hPa | 0 mm | 0.89 m/s, 92° | 0 W/m² | - |
| 1778045237 | 8.33° C | 97% | 1010 hPa | 0 mm | 1.34 m/s, 74° | 0 W/m² | - |
| 1778044935 | 8.33° C | 97% | 1009.6 hPa | 0 mm | 0 m/s | 0 W/m² | - |
| 1778044632 | 8.33° C | 97% | 1009.8 hPa | 0 mm | 1.34 m/s, 120° | 0 W/m² | - |
| 1778044329 | 8.33° C | 97% | 1009.9 hPa | 0 mm | 1.79 m/s, 40° | 0 W/m² | - |
| 1778044027 | 8.33° C | 97% | 1010.4 hPa | 0 mm | 0.45 m/s, 144° | 0 W/m² | - |
| 1778043723 | 8.33° C | 97% | 1010.5 hPa | 0 mm | 0 m/s | 0 W/m² | - |
| 1778043420 | 8.33° C | 97% | 1010.1 hPa | 0 mm | 0.89 m/s, 98° | 0 W/m² | - |
| 1778043116 | 8.33° C | 97% | 1010.3 hPa | 0 mm | 0 m/s | 0 W/m² | - |
| 1778042815 | 8.33° C | 97% | 1010.1 hPa | 0 mm | 0.45 m/s, 128° | 0 W/m² | - |
| 1778042511 | 8.33° C | 97% | 1009.9 hPa | 0 mm | 0 m/s | 0 W/m² | - |
| 1778042209 | 8.33° C | 97% | 1009.5 hPa | 0 mm | 1.79 m/s, 106° | 0 W/m² | - |
| 1778041906 | 8.89° C | 97% | 1009.1 hPa | 0 mm | 1.34 m/s, 54° | 0 W/m² | - |
* Rain latest hour (hover to see other rain measurements)
** Current wind speed in m/s (hover to see current wind gust speed)